sensor_id;sensor_type;location;lat;lon;timestamp;P1;durP1;ratioP1;P2;durP2;ratioP2
5696;SDS011;2873;50.966;7.210;2022-12-18T00:01:36;12.25;;;7.28;;
5696;SDS011;2873;50.966;7.210;2022-12-18T00:04:03;8.65;;;6.38;;
5696;SDS011;2873;50.966;7.210;2022-12-18T00:06:30;10.32;;;7.00;;
5696;SDS011;2873;50.966;7.210;2022-12-18T00:08:58;9.32;;;6.43;;
5696;SDS011;2873;50.966;7.210;2022-12-18T00:11:25;12.53;;;7.17;;
5696;SDS011;2873;50.966;7.210;2022-12-18T00:13:53;11.43;;;6.57;;
5696;SDS011;2873;50.966;7.210;2022-12-18T00:16:20;10.75;;;7.13;;
5696;SDS011;2873;50.966;7.210;2022-12-18T00:18:52;10.10;;;6.57;;
5696;SDS011;2873;50.966;7.210;2022-12-18T00:21:19;11.27;;;7.07;;
5696;SDS011;2873;50.966;7.210;2022-12-18T00:23:46;9.93;;;7.33;;
5696;SDS011;2873;50.966;7.210;2022-12-18T00:26:19;12.23;;;7.30;;
5696;SDS011;2873;50.966;7.210;2022-12-18T00:28:48;11.27;;;6.70;;
5696;SDS011;2873;50.966;7.210;2022-12-18T00:31:15;13.17;;;7.60;;
5696;SDS011;2873;50.966;7.210;2022-12-18T00:33:42;10.97;;;7.33;;
5696;SDS011;2873;50.966;7.210;2022-12-18T00:36:13;9.43;;;6.30;;
5696;SDS011;2873;50.966;7.210;2022-12-18T00:38:41;15.30;;;7.32;;
5696;SDS011;2873;50.966;7.210;2022-12-18T00:41:09;13.88;;;8.25;;
5696;SDS011;2873;50.966;7.210;2022-12-18T00:43:35;12.20;;;7.60;;
5696;SDS011;2873;50.966;7.210;2022-12-18T00:46:01;11.65;;;7.32;;
5696;SDS011;2873;50.966;7.210;2022-12-18T00:48:27;11.45;;;7.35;;
5696;SDS011;2873;50.966;7.210;2022-12-18T00:50:53;11.27;;;6.85;;
5696;SDS011;2873;50.966;7.210;2022-12-18T00:53:18;12.20;;;7.80;;
5696;SDS011;2873;50.966;7.210;2022-12-18T00:55:44;11.33;;;7.30;;
5696;SDS011;2873;50.966;7.210;2022-12-18T00:58:11;13.82;;;7.15;;
5696;SDS011;2873;50.966;7.210;2022-12-18T01:00:38;9.13;;;6.63;;
5696;SDS011;2873;50.966;7.210;2022-12-18T01:03:03;11.13;;;7.33;;
5696;SDS011;2873;50.966;7.210;2022-12-18T01:05:30;12.23;;;6.80;;
5696;SDS011;2873;50.966;7.210;2022-12-18T01:07:56;11.80;;;7.20;;
5696;SDS011;2873;50.966;7.210;2022-12-18T01:10:22;11.68;;;7.68;;
5696;SDS011;2873;50.966;7.210;2022-12-18T01:12:48;11.30;;;7.40;;
5696;SDS011;2873;50.966;7.210;2022-12-18T01:15:14;14.10;;;7.05;;
5696;SDS011;2873;50.966;7.210;2022-12-18T01:17:40;12.57;;;7.00;;
5696;SDS011;2873;50.966;7.210;2022-12-18T01:20:06;10.00;;;6.60;;
5696;SDS011;2873;50.966;7.210;2022-12-18T01:22:33;10.68;;;6.57;;
5696;SDS011;2873;50.966;7.210;2022-12-18T01:24:59;12.32;;;6.80;;
5696;SDS011;2873;50.966;7.210;2022-12-18T01:27:25;9.63;;;6.15;;
5696;SDS011;2873;50.966;7.210;2022-12-18T01:29:50;10.95;;;6.40;;
5696;SDS011;2873;50.966;7.210;2022-12-18T01:32:16;9.60;;;6.10;;
5696;SDS011;2873;50.966;7.210;2022-12-18T01:34:42;9.93;;;6.80;;
5696;SDS011;2873;50.966;7.210;2022-12-18T01:37:07;10.20;;;6.00;;
5696;SDS011;2873;50.966;7.210;2022-12-18T01:39:33;11.60;;;6.75;;
5696;SDS011;2873;50.966;7.210;2022-12-18T01:41:59;8.93;;;6.28;;
5696;SDS011;2873;50.966;7.210;2022-12-18T01:49:52;9.35;;;6.95;;
5696;SDS011;2873;50.966;7.210;2022-12-18T01:52:19;11.38;;;6.82;;
5696;SDS011;2873;50.966;7.210;2022-12-18T01:54:46;11.18;;;6.22;;
5696;SDS011;2873;50.966;7.210;2022-12-18T01:57:13;11.38;;;6.90;;
5696;SDS011;2873;50.966;7.210;2022-12-18T01:59:39;10.47;;;6.50;;
5696;SDS011;2873;50.966;7.210;2022-12-18T02:02:07;10.27;;;6.38;;
5696;SDS011;2873;50.966;7.210;2022-12-18T02:04:33;11.75;;;6.30;;
5696;SDS011;2873;50.966;7.210;2022-12-18T02:07:01;12.45;;;6.57;;
5696;SDS011;2873;50.966;7.210;2022-12-18T02:09:33;11.40;;;6.70;;
5696;SDS011;2873;50.966;7.210;2022-12-18T02:12:15;11.05;;;6.90;;
5696;SDS011;2873;50.966;7.210;2022-12-18T02:14:45;11.00;;;7.00;;
5696;SDS011;2873;50.966;7.210;2022-12-18T02:17:28;11.70;;;6.45;;
5696;SDS011;2873;50.966;7.210;2022-12-18T02:23:01;8.57;;;5.65;;
5696;SDS011;2873;50.966;7.210;2022-12-18T02:26:02;8.88;;;6.05;;
5696;SDS011;2873;50.966;7.210;2022-12-18T02:29:09;6.88;;;5.50;;
5696;SDS011;2873;50.966;7.210;2022-12-18T02:31:48;9.90;;;5.53;;
5696;SDS011;2873;50.966;7.210;2022-12-18T02:34:17;10.25;;;5.63;;
5696;SDS011;2873;50.966;7.210;2022-12-18T02:36:44;8.65;;;5.35;;
5696;SDS011;2873;50.966;7.210;2022-12-18T02:39:12;11.95;;;6.00;;
5696;SDS011;2873;50.966;7.210;2022-12-18T02:41:39;11.32;;;5.13;;
5696;SDS011;2873;50.966;7.210;2022-12-18T02:44:10;7.20;;;5.40;;
5696;SDS011;2873;50.966;7.210;2022-12-18T02:46:38;8.68;;;5.40;;
5696;SDS011;2873;50.966;7.210;2022-12-18T02:51:51;8.98;;;6.10;;
5696;SDS011;2873;50.966;7.210;2022-12-18T02:54:21;10.13;;;5.90;;
5696;SDS011;2873;50.966;7.210;2022-12-18T02:56:53;8.80;;;6.20;;
5696;SDS011;2873;50.966;7.210;2022-12-18T02:59:40;10.60;;;5.97;;
5696;SDS011;2873;50.966;7.210;2022-12-18T03:05:10;8.97;;;5.80;;
5696;SDS011;2873;50.966;7.210;2022-12-18T03:07:51;9.07;;;5.93;;
5696;SDS011;2873;50.966;7.210;2022-12-18T03:10:27;9.35;;;5.45;;
5696;SDS011;2873;50.966;7.210;2022-12-18T03:12:57;6.97;;;5.25;;
5696;SDS011;2873;50.966;7.210;2022-12-18T03:15:30;7.68;;;4.85;;
5696;SDS011;2873;50.966;7.210;2022-12-18T03:18:04;8.40;;;5.00;;
5696;SDS011;2873;50.966;7.210;2022-12-18T03:20:43;8.10;;;5.40;;
5696;SDS011;2873;50.966;7.210;2022-12-18T03:23:12;11.13;;;5.90;;
5696;SDS011;2873;50.966;7.210;2022-12-18T03:25:42;7.80;;;5.35;;
5696;SDS011;2873;50.966;7.210;2022-12-18T03:28:12;9.77;;;6.15;;
5696;SDS011;2873;50.966;7.210;2022-12-18T03:30:40;10.32;;;5.80;;
5696;SDS011;2873;50.966;7.210;2022-12-18T03:33:25;8.07;;;5.65;;
5696;SDS011;2873;50.966;7.210;2022-12-18T03:35:54;9.00;;;5.18;;
5696;SDS011;2873;50.966;7.210;2022-12-18T03:38:20;7.67;;;5.30;;
5696;SDS011;2873;50.966;7.210;2022-12-18T03:40:59;9.00;;;5.23;;
5696;SDS011;2873;50.966;7.210;2022-12-18T03:46:40;6.20;;;4.88;;
5696;SDS011;2873;50.966;7.210;2022-12-18T03:54:39;7.97;;;5.70;;
5696;SDS011;2873;50.966;7.210;2022-12-18T03:57:11;7.88;;;4.70;;
5696;SDS011;2873;50.966;7.210;2022-12-18T03:59:45;10.20;;;5.20;;
5696;SDS011;2873;50.966;7.210;2022-12-18T04:02:13;6.00;;;4.60;;
5696;SDS011;2873;50.966;7.210;2022-12-18T04:04:41;7.38;;;5.38;;
5696;SDS011;2873;50.966;7.210;2022-12-18T04:07:08;8.30;;;5.18;;
5696;SDS011;2873;50.966;7.210;2022-12-18T04:09:35;9.00;;;5.57;;
5696;SDS011;2873;50.966;7.210;2022-12-18T04:12:01;8.18;;;5.07;;
5696;SDS011;2873;50.966;7.210;2022-12-18T04:14:27;7.68;;;5.00;;
5696;SDS011;2873;50.966;7.210;2022-12-18T04:16:53;10.10;;;5.18;;
5696;SDS011;2873;50.966;7.210;2022-12-18T04:19:18;10.63;;;5.10;;
5696;SDS011;2873;50.966;7.210;2022-12-18T04:21:44;7.20;;;5.23;;
5696;SDS011;2873;50.966;7.210;2022-12-18T04:24:09;8.38;;;5.40;;
5696;SDS011;2873;50.966;7.210;2022-12-18T04:26:35;8.23;;;5.27;;
5696;SDS011;2873;50.966;7.210;2022-12-18T04:29:00;7.90;;;4.83;;
5696;SDS011;2873;50.966;7.210;2022-12-18T04:31:26;7.88;;;5.25;;
5696;SDS011;2873;50.966;7.210;2022-12-18T04:33:51;5.97;;;5.10;;
5696;SDS011;2873;50.966;7.210;2022-12-18T04:36:17;7.10;;;4.72;;
5696;SDS011;2873;50.966;7.210;2022-12-18T04:38:43;7.73;;;4.87;;
5696;SDS011;2873;50.966;7.210;2022-12-18T04:41:08;8.93;;;5.23;;
5696;SDS011;2873;50.966;7.210;2022-12-18T04:43:34;7.55;;;4.80;;
5696;SDS011;2873;50.966;7.210;2022-12-18T04:46:03;6.23;;;5.00;;
5696;SDS011;2873;50.966;7.210;2022-12-18T04:48:30;6.85;;;5.00;;
5696;SDS011;2873;50.966;7.210;2022-12-18T04:50:55;7.07;;;5.23;;
5696;SDS011;2873;50.966;7.210;2022-12-18T04:53:21;5.20;;;4.30;;
5696;SDS011;2873;50.966;7.210;2022-12-18T04:55:46;9.10;;;5.65;;
5696;SDS011;2873;50.966;7.210;2022-12-18T04:58:12;6.57;;;4.80;;
5696;SDS011;2873;50.966;7.210;2022-12-18T05:00:37;7.53;;;5.10;;
5696;SDS011;2873;50.966;7.210;2022-12-18T05:03:03;6.77;;;4.97;;
5696;SDS011;2873;50.966;7.210;2022-12-18T05:05:28;8.27;;;5.28;;
5696;SDS011;2873;50.966;7.210;2022-12-18T05:07:54;5.87;;;4.60;;
5696;SDS011;2873;50.966;7.210;2022-12-18T05:10:19;9.13;;;5.03;;
5696;SDS011;2873;50.966;7.210;2022-12-18T05:12:45;7.38;;;5.20;;
5696;SDS011;2873;50.966;7.210;2022-12-18T05:15:23;9.37;;;5.30;;
5696;SDS011;2873;50.966;7.210;2022-12-18T05:17:49;8.43;;;5.40;;
5696;SDS011;2873;50.966;7.210;2022-12-18T05:20:14;7.40;;;5.10;;
5696;SDS011;2873;50.966;7.210;2022-12-18T05:22:40;7.37;;;5.30;;
5696;SDS011;2873;50.966;7.210;2022-12-18T05:25:05;8.60;;;5.27;;
5696;SDS011;2873;50.966;7.210;2022-12-18T05:27:31;6.95;;;5.30;;
5696;SDS011;2873;50.966;7.210;2022-12-18T05:29:57;7.72;;;5.30;;
5696;SDS011;2873;50.966;7.210;2022-12-18T05:32:22;8.50;;;5.30;;
5696;SDS011;2873;50.966;7.210;2022-12-18T05:34:48;8.27;;;5.50;;
5696;SDS011;2873;50.966;7.210;2022-12-18T05:37:13;7.30;;;5.30;;
5696;SDS011;2873;50.966;7.210;2022-12-18T05:39:39;8.77;;;5.60;;
5696;SDS011;2873;50.966;7.210;2022-12-18T05:42:04;7.97;;;5.50;;
5696;SDS011;2873;50.966;7.210;2022-12-18T05:44:30;10.40;;;5.90;;
5696;SDS011;2873;50.966;7.210;2022-12-18T05:46:55;9.33;;;5.80;;
5696;SDS011;2873;50.966;7.210;2022-12-18T05:49:21;9.90;;;6.00;;
5696;SDS011;2873;50.966;7.210;2022-12-18T05:51:46;7.57;;;5.30;;
5696;SDS011;2873;50.966;7.210;2022-12-18T05:54:12;7.37;;;5.33;;
5696;SDS011;2873;50.966;7.210;2022-12-18T05:56:37;7.97;;;5.53;;
5696;SDS011;2873;50.966;7.210;2022-12-18T05:59:03;9.88;;;6.03;;
5696;SDS011;2873;50.966;7.210;2022-12-18T06:01:29;8.60;;;5.77;;
5696;SDS011;2873;50.966;7.210;2022-12-18T06:03:54;8.97;;;6.27;;
5696;SDS011;2873;50.966;7.210;2022-12-18T06:06:22;7.53;;;5.40;;
5696;SDS011;2873;50.966;7.210;2022-12-18T06:08:49;9.77;;;5.93;;
5696;SDS011;2873;50.966;7.210;2022-12-18T06:11:19;9.95;;;6.10;;
5696;SDS011;2873;50.966;7.210;2022-12-18T06:13:49;8.95;;;5.70;;
5696;SDS011;2873;50.966;7.210;2022-12-18T06:16:16;9.77;;;6.47;;
5696;SDS011;2873;50.966;7.210;2022-12-18T06:18:41;8.40;;;6.00;;
5696;SDS011;2873;50.966;7.210;2022-12-18T06:21:07;9.63;;;6.50;;
5696;SDS011;2873;50.966;7.210;2022-12-18T06:23:33;8.70;;;5.73;;
5696;SDS011;2873;50.966;7.210;2022-12-18T06:25:58;9.15;;;6.07;;
5696;SDS011;2873;50.966;7.210;2022-12-18T06:28:28;8.60;;;5.80;;
5696;SDS011;2873;50.966;7.210;2022-12-18T06:30:53;10.53;;;6.60;;
5696;SDS011;2873;50.966;7.210;2022-12-18T06:33:19;10.80;;;6.05;;
5696;SDS011;2873;50.966;7.210;2022-12-18T06:35:44;7.50;;;5.43;;
5696;SDS011;2873;50.966;7.210;2022-12-18T06:38:10;12.40;;;6.53;;
5696;SDS011;2873;50.966;7.210;2022-12-18T06:40:36;11.45;;;6.50;;
5696;SDS011;2873;50.966;7.210;2022-12-18T06:43:03;12.07;;;7.30;;
5696;SDS011;2873;50.966;7.210;2022-12-18T06:45:29;15.52;;;9.10;;
5696;SDS011;2873;50.966;7.210;2022-12-18T06:47:54;11.60;;;6.83;;
5696;SDS011;2873;50.966;7.210;2022-12-18T06:50:20;11.63;;;7.20;;
5696;SDS011;2873;50.966;7.210;2022-12-18T06:52:47;10.40;;;6.35;;
5696;SDS011;2873;50.966;7.210;2022-12-18T06:55:12;10.87;;;6.27;;
5696;SDS011;2873;50.966;7.210;2022-12-18T06:57:38;10.10;;;6.45;;
5696;SDS011;2873;50.966;7.210;2022-12-18T07:00:04;13.30;;;7.47;;
5696;SDS011;2873;50.966;7.210;2022-12-18T07:02:30;10.13;;;6.45;;
5696;SDS011;2873;50.966;7.210;2022-12-18T07:04:56;10.33;;;6.80;;
5696;SDS011;2873;50.966;7.210;2022-12-18T07:07:21;11.60;;;7.10;;
5696;SDS011;2873;50.966;7.210;2022-12-18T07:09:48;11.93;;;6.97;;
5696;SDS011;2873;50.966;7.210;2022-12-18T07:12:14;14.93;;;7.60;;
5696;SDS011;2873;50.966;7.210;2022-12-18T07:14:40;12.27;;;7.00;;
5696;SDS011;2873;50.966;7.210;2022-12-18T07:17:05;11.30;;;6.63;;
5696;SDS011;2873;50.966;7.210;2022-12-18T07:19:31;10.47;;;6.30;;
5696;SDS011;2873;50.966;7.210;2022-12-18T07:21:57;12.48;;;6.90;;
5696;SDS011;2873;50.966;7.210;2022-12-18T07:24:22;11.87;;;6.00;;
5696;SDS011;2873;50.966;7.210;2022-12-18T07:26:48;9.30;;;6.40;;
5696;SDS011;2873;50.966;7.210;2022-12-18T07:29:13;15.18;;;7.28;;
5696;SDS011;2873;50.966;7.210;2022-12-18T07:31:39;16.50;;;8.13;;
5696;SDS011;2873;50.966;7.210;2022-12-18T07:34:04;13.50;;;8.23;;
5696;SDS011;2873;50.966;7.210;2022-12-18T07:36:30;28.67;;;12.55;;
5696;SDS011;2873;50.966;7.210;2022-12-18T07:38:55;20.80;;;10.53;;
5696;SDS011;2873;50.966;7.210;2022-12-18T07:41:21;26.60;;;14.00;;
5696;SDS011;2873;50.966;7.210;2022-12-18T07:43:47;14.70;;;8.57;;
5696;SDS011;2873;50.966;7.210;2022-12-18T07:46:13;11.75;;;7.95;;
5696;SDS011;2873;50.966;7.210;2022-12-18T07:48:40;10.95;;;7.20;;
5696;SDS011;2873;50.966;7.210;2022-12-18T07:51:06;11.95;;;7.18;;
5696;SDS011;2873;50.966;7.210;2022-12-18T07:53:32;11.50;;;7.90;;
5696;SDS011;2873;50.966;7.210;2022-12-18T07:56:00;13.37;;;7.80;;
5696;SDS011;2873;50.966;7.210;2022-12-18T07:58:28;12.68;;;8.50;;
5696;SDS011;2873;50.966;7.210;2022-12-18T08:01:01;17.95;;;9.63;;
5696;SDS011;2873;50.966;7.210;2022-12-18T08:03:31;17.60;;;10.27;;
5696;SDS011;2873;50.966;7.210;2022-12-18T08:06:00;13.43;;;8.88;;
5696;SDS011;2873;50.966;7.210;2022-12-18T08:08:28;17.63;;;9.82;;
5696;SDS011;2873;50.966;7.210;2022-12-18T08:10:54;13.25;;;8.80;;
5696;SDS011;2873;50.966;7.210;2022-12-18T08:13:19;13.32;;;8.05;;
5696;SDS011;2873;50.966;7.210;2022-12-18T08:15:45;11.05;;;6.85;;
5696;SDS011;2873;50.966;7.210;2022-12-18T08:18:11;10.50;;;6.50;;
5696;SDS011;2873;50.966;7.210;2022-12-18T08:20:36;9.70;;;6.17;;
5696;SDS011;2873;50.966;7.210;2022-12-18T08:23:02;11.80;;;6.65;;
5696;SDS011;2873;50.966;7.210;2022-12-18T08:25:27;9.70;;;6.50;;
5696;SDS011;2873;50.966;7.210;2022-12-18T08:27:53;11.27;;;6.93;;
5696;SDS011;2873;50.966;7.210;2022-12-18T08:30:18;9.80;;;6.20;;
5696;SDS011;2873;50.966;7.210;2022-12-18T08:32:44;10.60;;;6.60;;
5696;SDS011;2873;50.966;7.210;2022-12-18T08:35:10;10.43;;;6.40;;
5696;SDS011;2873;50.966;7.210;2022-12-18T08:37:36;9.85;;;6.63;;
5696;SDS011;2873;50.966;7.210;2022-12-18T08:40:02;11.15;;;7.40;;
5696;SDS011;2873;50.966;7.210;2022-12-18T08:42:28;10.70;;;7.25;;
5696;SDS011;2873;50.966;7.210;2022-12-18T08:45:12;19.05;;;10.50;;
5696;SDS011;2873;50.966;7.210;2022-12-18T08:47:38;18.70;;;10.10;;
5696;SDS011;2873;50.966;7.210;2022-12-18T08:50:04;18.15;;;10.30;;
5696;SDS011;2873;50.966;7.210;2022-12-18T08:52:31;15.27;;;9.20;;
5696;SDS011;2873;50.966;7.210;2022-12-18T08:54:57;15.82;;;9.68;;
5696;SDS011;2873;50.966;7.210;2022-12-18T08:57:22;13.63;;;9.18;;
5696;SDS011;2873;50.966;7.210;2022-12-18T08:59:48;13.03;;;8.63;;
5696;SDS011;2873;50.966;7.210;2022-12-18T09:02:14;15.90;;;8.80;;
5696;SDS011;2873;50.966;7.210;2022-12-18T09:04:39;12.07;;;8.10;;
5696;SDS011;2873;50.966;7.210;2022-12-18T09:07:05;12.37;;;8.00;;
5696;SDS011;2873;50.966;7.210;2022-12-18T09:09:30;12.70;;;8.50;;
5696;SDS011;2873;50.966;7.210;2022-12-18T09:11:56;13.33;;;8.10;;
5696;SDS011;2873;50.966;7.210;2022-12-18T09:14:21;12.25;;;7.55;;
5696;SDS011;2873;50.966;7.210;2022-12-18T09:16:47;10.20;;;7.20;;
5696;SDS011;2873;50.966;7.210;2022-12-18T09:19:13;10.33;;;7.47;;
5696;SDS011;2873;50.966;7.210;2022-12-18T09:21:38;13.10;;;7.70;;
5696;SDS011;2873;50.966;7.210;2022-12-18T09:24:04;12.47;;;7.50;;
5696;SDS011;2873;50.966;7.210;2022-12-18T09:26:30;12.77;;;8.17;;
5696;SDS011;2873;50.966;7.210;2022-12-18T09:28:56;12.47;;;7.90;;
5696;SDS011;2873;50.966;7.210;2022-12-18T09:31:22;13.30;;;7.77;;
5696;SDS011;2873;50.966;7.210;2022-12-18T09:33:49;11.95;;;7.65;;
5696;SDS011;2873;50.966;7.210;2022-12-18T09:36:16;13.13;;;7.93;;
5696;SDS011;2873;50.966;7.210;2022-12-18T09:38:42;9.60;;;6.85;;
5696;SDS011;2873;50.966;7.210;2022-12-18T09:43:57;11.68;;;7.75;;
5696;SDS011;2873;50.966;7.210;2022-12-18T09:46:30;14.10;;;7.80;;
5696;SDS011;2873;50.966;7.210;2022-12-18T09:49:00;12.43;;;7.85;;
5696;SDS011;2873;50.966;7.210;2022-12-18T09:51:39;15.98;;;9.10;;
5696;SDS011;2873;50.966;7.210;2022-12-18T09:54:12;13.30;;;7.80;;
5696;SDS011;2873;50.966;7.210;2022-12-18T09:56:43;13.68;;;8.73;;
5696;SDS011;2873;50.966;7.210;2022-12-18T09:59:19;10.37;;;7.23;;
5696;SDS011;2873;50.966;7.210;2022-12-18T10:01:49;12.25;;;8.23;;
5696;SDS011;2873;50.966;7.210;2022-12-18T10:04:15;10.95;;;7.80;;
5696;SDS011;2873;50.966;7.210;2022-12-18T10:09:20;10.35;;;7.25;;
5696;SDS011;2873;50.966;7.210;2022-12-18T10:12:17;10.60;;;7.05;;
5696;SDS011;2873;50.966;7.210;2022-12-18T10:20:16;10.82;;;6.90;;
5696;SDS011;2873;50.966;7.210;2022-12-18T10:23:02;10.73;;;6.43;;
5696;SDS011;2873;50.966;7.210;2022-12-18T10:26:03;9.88;;;6.45;;
5696;SDS011;2873;50.966;7.210;2022-12-18T10:28:36;10.50;;;6.90;;
5696;SDS011;2873;50.966;7.210;2022-12-18T10:31:05;10.40;;;6.80;;
5696;SDS011;2873;50.966;7.210;2022-12-18T10:33:32;11.85;;;7.80;;
5696;SDS011;2873;50.966;7.210;2022-12-18T10:35:59;9.88;;;6.45;;
5696;SDS011;2873;50.966;7.210;2022-12-18T10:38:26;10.98;;;6.50;;
5696;SDS011;2873;50.966;7.210;2022-12-18T10:40:55;8.95;;;6.47;;
5696;SDS011;2873;50.966;7.210;2022-12-18T10:43:25;12.35;;;7.75;;
5696;SDS011;2873;50.966;7.210;2022-12-18T10:48:34;11.27;;;7.00;;
5696;SDS011;2873;50.966;7.210;2022-12-18T10:51:04;10.50;;;6.88;;
5696;SDS011;2873;50.966;7.210;2022-12-18T10:53:31;9.95;;;6.78;;
5696;SDS011;2873;50.966;7.210;2022-12-18T10:56:00;11.85;;;7.70;;
5696;SDS011;2873;50.966;7.210;2022-12-18T10:58:28;9.35;;;7.10;;
5696;SDS011;2873;50.966;7.210;2022-12-18T11:01:03;12.05;;;7.57;;
5696;SDS011;2873;50.966;7.210;2022-12-18T11:03:36;13.97;;;8.47;;
5696;SDS011;2873;50.966;7.210;2022-12-18T11:08:40;12.98;;;7.78;;
5696;SDS011;2873;50.966;7.210;2022-12-18T11:11:15;11.73;;;7.37;;
5696;SDS011;2873;50.966;7.210;2022-12-18T11:13:57;10.48;;;6.85;;
5696;SDS011;2873;50.966;7.210;2022-12-18T11:16:34;10.55;;;6.80;;
5696;SDS011;2873;50.966;7.210;2022-12-18T11:19:18;10.20;;;7.30;;
5696;SDS011;2873;50.966;7.210;2022-12-18T11:21:59;10.30;;;7.40;;
5696;SDS011;2873;50.966;7.210;2022-12-18T11:24:52;10.35;;;7.32;;
5696;SDS011;2873;50.966;7.210;2022-12-18T11:27:20;10.68;;;7.25;;
5696;SDS011;2873;50.966;7.210;2022-12-18T11:29:46;9.47;;;7.17;;
5696;SDS011;2873;50.966;7.210;2022-12-18T11:35:03;12.18;;;8.38;;
5696;SDS011;2873;50.966;7.210;2022-12-18T11:37:40;14.00;;;8.73;;
5696;SDS011;2873;50.966;7.210;2022-12-18T11:40:15;14.20;;;8.75;;
5696;SDS011;2873;50.966;7.210;2022-12-18T11:42:49;12.75;;;8.48;;
5696;SDS011;2873;50.966;7.210;2022-12-18T11:45:31;14.25;;;9.00;;
5696;SDS011;2873;50.966;7.210;2022-12-18T11:48:03;12.00;;;8.20;;
5696;SDS011;2873;50.966;7.210;2022-12-18T11:50:41;14.55;;;8.05;;
5696;SDS011;2873;50.966;7.210;2022-12-18T11:53:16;12.90;;;8.40;;
5696;SDS011;2873;50.966;7.210;2022-12-18T12:07:18;13.55;;;8.25;;
5696;SDS011;2873;50.966;7.210;2022-12-18T12:10:09;15.40;;;9.30;;
5696;SDS011;2873;50.966;7.210;2022-12-18T12:13:11;14.35;;;9.25;;
5696;SDS011;2873;50.966;7.210;2022-12-18T12:15:49;17.45;;;10.13;;
5696;SDS011;2873;50.966;7.210;2022-12-18T12:18:28;14.90;;;8.95;;
5696;SDS011;2873;50.966;7.210;2022-12-18T12:21:02;16.00;;;9.30;;
5696;SDS011;2873;50.966;7.210;2022-12-18T12:37:06;17.00;;;10.50;;
5696;SDS011;2873;50.966;7.210;2022-12-18T12:39:42;16.85;;;10.30;;
5696;SDS011;2873;50.966;7.210;2022-12-18T12:42:16;16.45;;;10.00;;
5696;SDS011;2873;50.966;7.210;2022-12-18T12:45:06;17.35;;;10.98;;
5696;SDS011;2873;50.966;7.210;2022-12-18T12:47:43;20.15;;;11.90;;
5696;SDS011;2873;50.966;7.210;2022-12-18T12:50:13;18.75;;;11.05;;
5696;SDS011;2873;50.966;7.210;2022-12-18T12:52:45;16.00;;;10.45;;
5696;SDS011;2873;50.966;7.210;2022-12-18T13:01:14;21.48;;;11.20;;
5696;SDS011;2873;50.966;7.210;2022-12-18T13:04:12;17.83;;;10.75;;
5696;SDS011;2873;50.966;7.210;2022-12-18T13:06:45;23.48;;;11.52;;
5696;SDS011;2873;50.966;7.210;2022-12-18T13:09:21;22.92;;;11.55;;
5696;SDS011;2873;50.966;7.210;2022-12-18T13:11:46;19.25;;;11.73;;
5696;SDS011;2873;50.966;7.210;2022-12-18T13:17:16;22.05;;;11.60;;
5696;SDS011;2873;50.966;7.210;2022-12-18T13:19:52;19.58;;;11.27;;
5696;SDS011;2873;50.966;7.210;2022-12-18T13:22:32;20.48;;;12.00;;
5696;SDS011;2873;50.966;7.210;2022-12-18T13:25:02;20.60;;;11.85;;
5696;SDS011;2873;50.966;7.210;2022-12-18T13:27:57;18.35;;;11.00;;
5696;SDS011;2873;50.966;7.210;2022-12-18T13:38:39;22.90;;;12.60;;
5696;SDS011;2873;50.966;7.210;2022-12-18T13:44:10;20.95;;;11.60;;
5696;SDS011;2873;50.966;7.210;2022-12-18T13:46:44;24.05;;;13.05;;
5696;SDS011;2873;50.966;7.210;2022-12-18T13:51:43;24.77;;;13.98;;
5696;SDS011;2873;50.966;7.210;2022-12-18T13:54:27;24.50;;;13.95;;
5696;SDS011;2873;50.966;7.210;2022-12-18T13:57:02;22.65;;;11.85;;
5696;SDS011;2873;50.966;7.210;2022-12-18T13:59:33;24.10;;;13.10;;
5696;SDS011;2873;50.966;7.210;2022-12-18T14:02:14;20.63;;;12.77;;
5696;SDS011;2873;50.966;7.210;2022-12-18T14:04:44;26.13;;;13.80;;
5696;SDS011;2873;50.966;7.210;2022-12-18T14:07:14;25.58;;;14.00;;
5696;SDS011;2873;50.966;7.210;2022-12-18T14:09:42;23.35;;;12.88;;
5696;SDS011;2873;50.966;7.210;2022-12-18T14:12:18;25.73;;;13.07;;
5696;SDS011;2873;50.966;7.210;2022-12-18T14:17:50;23.33;;;13.13;;
5696;SDS011;2873;50.966;7.210;2022-12-18T14:20:18;23.63;;;13.60;;
5696;SDS011;2873;50.966;7.210;2022-12-18T14:22:45;25.05;;;13.70;;
5696;SDS011;2873;50.966;7.210;2022-12-18T14:25:20;22.50;;;12.77;;
5696;SDS011;2873;50.966;7.210;2022-12-18T14:27:50;24.33;;;13.57;;
5696;SDS011;2873;50.966;7.210;2022-12-18T14:33:02;25.13;;;14.10;;
5696;SDS011;2873;50.966;7.210;2022-12-18T14:35:29;25.13;;;13.70;;
5696;SDS011;2873;50.966;7.210;2022-12-18T14:38:08;23.50;;;13.50;;
5696;SDS011;2873;50.966;7.210;2022-12-18T14:40:47;25.75;;;13.95;;
5696;SDS011;2873;50.966;7.210;2022-12-18T14:43:13;23.13;;;13.40;;
5696;SDS011;2873;50.966;7.210;2022-12-18T14:45:41;25.73;;;13.90;;
5696;SDS011;2873;50.966;7.210;2022-12-18T14:48:08;31.90;;;15.23;;
5696;SDS011;2873;50.966;7.210;2022-12-18T14:50:54;22.83;;;13.52;;
5696;SDS011;2873;50.966;7.210;2022-12-18T14:53:38;26.17;;;14.13;;
5696;SDS011;2873;50.966;7.210;2022-12-18T14:56:13;28.73;;;14.95;;
5696;SDS011;2873;50.966;7.210;2022-12-18T14:58:45;24.20;;;13.20;;
5696;SDS011;2873;50.966;7.210;2022-12-18T15:03:52;28.45;;;14.73;;
5696;SDS011;2873;50.966;7.210;2022-12-18T15:06:37;29.33;;;14.27;;
5696;SDS011;2873;50.966;7.210;2022-12-18T15:09:25;28.70;;;15.18;;
5696;SDS011;2873;50.966;7.210;2022-12-18T15:11:55;24.23;;;13.68;;
5696;SDS011;2873;50.966;7.210;2022-12-18T15:17:03;23.88;;;14.30;;
5696;SDS011;2873;50.966;7.210;2022-12-18T15:19:51;25.83;;;14.57;;
5696;SDS011;2873;50.966;7.210;2022-12-18T15:22:30;23.88;;;13.40;;
5696;SDS011;2873;50.966;7.210;2022-12-18T15:24:59;27.30;;;15.07;;
5696;SDS011;2873;50.966;7.210;2022-12-18T15:27:26;26.73;;;14.95;;
5696;SDS011;2873;50.966;7.210;2022-12-18T15:32:40;27.23;;;15.50;;
5696;SDS011;2873;50.966;7.210;2022-12-18T15:37:44;27.00;;;15.38;;
5696;SDS011;2873;50.966;7.210;2022-12-18T15:40:14;25.13;;;14.03;;
5696;SDS011;2873;50.966;7.210;2022-12-18T15:42:44;27.30;;;14.45;;
5696;SDS011;2873;50.966;7.210;2022-12-18T15:45:30;28.15;;;15.10;;
5696;SDS011;2873;50.966;7.210;2022-12-18T15:47:55;30.90;;;15.57;;
5696;SDS011;2873;50.966;7.210;2022-12-18T15:50:21;27.95;;;14.73;;
5696;SDS011;2873;50.966;7.210;2022-12-18T15:52:48;30.10;;;14.93;;
5696;SDS011;2873;50.966;7.210;2022-12-18T15:55:17;27.80;;;14.80;;
5696;SDS011;2873;50.966;7.210;2022-12-18T15:58:04;27.52;;;15.38;;
5696;SDS011;2873;50.966;7.210;2022-12-18T16:00:31;32.67;;;16.27;;
5696;SDS011;2873;50.966;7.210;2022-12-18T16:02:58;28.05;;;15.30;;
5696;SDS011;2873;50.966;7.210;2022-12-18T16:05:24;28.13;;;15.43;;
5696;SDS011;2873;50.966;7.210;2022-12-18T16:07:52;26.85;;;14.38;;
5696;SDS011;2873;50.966;7.210;2022-12-18T16:10:17;27.58;;;15.15;;
5696;SDS011;2873;50.966;7.210;2022-12-18T16:12:43;29.50;;;16.00;;
5696;SDS011;2873;50.966;7.210;2022-12-18T16:15:09;30.27;;;16.17;;
5696;SDS011;2873;50.966;7.210;2022-12-18T16:17:38;28.63;;;15.38;;
5696;SDS011;2873;50.966;7.210;2022-12-18T16:20:04;40.33;;;19.17;;
5696;SDS011;2873;50.966;7.210;2022-12-18T16:22:31;31.60;;;15.93;;
5696;SDS011;2873;50.966;7.210;2022-12-18T16:24:57;27.80;;;15.77;;
5696;SDS011;2873;50.966;7.210;2022-12-18T16:27:23;30.42;;;15.35;;
5696;SDS011;2873;50.966;7.210;2022-12-18T16:29:49;26.35;;;15.30;;
5696;SDS011;2873;50.966;7.210;2022-12-18T16:32:16;34.35;;;16.30;;
5696;SDS011;2873;50.966;7.210;2022-12-18T16:34:43;31.33;;;15.83;;
5696;SDS011;2873;50.966;7.210;2022-12-18T16:37:11;30.25;;;15.50;;
5696;SDS011;2873;50.966;7.210;2022-12-18T16:39:38;31.15;;;16.23;;
5696;SDS011;2873;50.966;7.210;2022-12-18T16:42:14;29.92;;;16.58;;
5696;SDS011;2873;50.966;7.210;2022-12-18T16:44:44;28.77;;;17.02;;
5696;SDS011;2873;50.966;7.210;2022-12-18T16:47:10;32.17;;;16.60;;
5696;SDS011;2873;50.966;7.210;2022-12-18T16:49:35;30.03;;;15.87;;
5696;SDS011;2873;50.966;7.210;2022-12-18T16:52:01;30.30;;;16.33;;
5696;SDS011;2873;50.966;7.210;2022-12-18T16:54:28;31.17;;;17.10;;
5696;SDS011;2873;50.966;7.210;2022-12-18T16:56:58;28.30;;;15.77;;
5696;SDS011;2873;50.966;7.210;2022-12-18T16:59:24;33.08;;;17.25;;
5696;SDS011;2873;50.966;7.210;2022-12-18T17:01:50;31.88;;;17.30;;
5696;SDS011;2873;50.966;7.210;2022-12-18T17:04:16;31.70;;;16.67;;